Time;durP1;ratioP1;P1;durP2;ratioP2;P2;SDS_P1;SDS_P2;PMS_P1;PMS_P2;Temp;Humidity;BMP_temperature;BMP_pressure;BME280_temperature;BME280_humidity;BME280_pressure;Samples;Min_cycle;Max_cycle;Signal;HPM_P1;HPM_P2
2023/09/30 00:01:58;;;;;;;10.82;3.92;;;;;;;15.54;98.04;101513.53;5054522;28;20048;-77
2023/09/30 00:05:03;;;;;;;8.25;3.63;;;;;;;15.46;96.67;101510.47;5054611;28;20459;-77
2023/09/30 00:08:07;;;;;;;14.45;3.60;;;;;;;15.45;97.40;101518.50;5054487;28;20106;-78
2023/09/30 00:11:10;;;;;;;15.13;4.45;;;;;;;15.16;97.10;101512.22;5041771;28;20051;-77
2023/09/30 00:14:13;;;;;;;10.23;3.95;;;;;;;15.12;97.92;101516.78;5042044;28;20148;-77
2023/09/30 00:17:16;;;;;;;15.25;5.72;;;;;;;15.03;99.12;101523.44;5054260;28;20404;-77
2023/09/30 00:20:20;;;;;;;12.88;5.22;;;;;;;15.01;99.19;101522.66;5041923;28;20123;-77
2023/09/30 00:23:24;;;;;;;13.88;4.28;;;;;;;15.07;99.42;101524.13;5054107;28;20072;-77
2023/09/30 00:26:27;;;;;;;14.63;4.28;;;;;;;15.15;97.64;101523.69;5054414;28;20420;-77
2023/09/30 00:29:30;;;;;;;12.23;3.72;;;;;;;15.08;96.73;101531.06;5054080;28;20039;-77
2023/09/30 00:32:34;;;;;;;12.32;4.35;;;;;;;15.06;97.48;101531.19;5053972;28;20048;-77
2023/09/30 00:35:37;;;;;;;11.30;4.28;;;;;;;14.97;97.94;101542.22;5041921;28;20083;-77
2023/09/30 00:38:40;;;;;;;13.70;4.90;;;;;;;14.93;97.40;101535.38;5053863;28;20143;-77
2023/09/30 00:41:43;;;;;;;12.70;4.10;;;;;;;14.87;97.37;101539.22;5041370;28;20071;-77
2023/09/30 00:44:47;;;;;;;15.68;4.75;;;;;;;14.83;97.18;101542.94;5053779;28;20401;-77
2023/09/30 00:47:51;;;;;;;14.25;4.65;;;;;;;14.92;96.83;101549.50;5041361;28;20044;-77
2023/09/30 00:50:55;;;;;;;13.00;4.35;;;;;;;14.83;97.12;101557.88;5041290;28;20082;-77
2023/09/30 00:54:00;;;;;;;19.27;5.10;;;;;;;14.84;97.61;101559.63;5053460;28;20044;-77
2023/09/30 00:57:03;;;;;;;20.48;5.65;;;;;;;14.79;98.05;101551.09;5053522;28;20048;-78
2023/09/30 01:00:11;;;;;;;12.00;4.85;;;;;;;14.89;97.18;101558.41;5053467;28;20040;-77
2023/09/30 01:03:15;;;;;;;10.77;4.45;;;;;;;14.87;96.57;101562.09;5040925;28;20036;-77
2023/09/30 05:49:04;;;;;;;6.57;4.45;;;;;;;12.68;97.20;101689.06;5011900;28;20103;-74
2023/09/30 05:52:10;;;;;;;7.30;4.10;;;;;;;12.70;96.48;101687.25;5010922;28;20108;-75
2023/09/30 05:55:16;;;;;;;7.68;4.32;;;;;;;12.67;97.21;101697.88;5011862;28;20125;-74
2023/09/30 05:58:19;;;;;;;7.45;4.53;;;;;;;12.65;96.44;101698.84;5011658;28;20045;-75
2023/09/30 06:01:22;;;;;;;11.02;5.28;;;;;;;12.74;96.16;101691.44;5010957;28;20048;-76
2023/09/30 06:04:25;;;;;;;;;;;;;;;12.88;95.55;101700.47;5011956;28;20128;-76
2023/09/30 06:07:29;;;;;;;10.45;4.82;;;;;;;12.89;94.81;101696.91;5011724;28;19923;-75
2023/09/30 06:10:32;;;;;;;13.45;5.32;;;;;;;12.72;92.92;101700.28;5011429;28;20493;-75
2023/09/30 06:13:35;;;;;;;;;;;;;;;12.79;92.88;101696.47;5011985;28;20099;-74
2023/09/30 06:16:39;;;;;;;8.80;4.68;;;;;;;12.79;93.32;101712.22;5011582;28;19920;-75
2023/09/30 06:19:42;;;;;;;14.20;4.28;;;;;;;12.72;94.21;101722.13;5010684;28;20056;-75
2023/09/30 06:22:45;;;;;;;17.35;5.00;;;;;;;12.57;95.41;101722.75;5013136;28;20120;-60
2023/09/30 06:25:48;;;;;;;12.40;4.80;;;;;;;12.45;96.40;101707.53;5015218;28;20076;-73
2023/09/30 06:28:54;;;;;;;11.45;5.30;;;;;;;12.54;96.42;101699.31;5015616;28;20108;-75
2023/09/30 06:31:57;;;;;;;12.05;4.90;;;;;;;12.63;95.88;101703.28;5016086;28;20045;-75
2023/09/30 06:35:06;;;;;;;8.15;4.97;;;;;;;12.53;96.64;101715.94;5015534;28;20061;-76
2023/09/30 06:38:09;;;;;;;13.10;5.30;;;;;;;12.61;96.68;101708.63;5015212;28;20072;-75
2023/09/30 06:41:17;;;;;;;9.43;4.97;;;;;;;12.70;95.83;101713.47;5025698;28;20065;-74
2023/09/30 06:44:22;;;;;;;9.38;4.85;;;;;;;12.78;95.75;101724.50;5015431;28;20049;-74
2023/09/30 06:47:25;;;;;;;9.68;4.75;;;;;;;12.84;94.98;101735.66;5039513;28;20433;-75
2023/09/30 06:50:28;;;;;;;14.95;4.97;;;;;;;12.79;95.63;101728.84;5053430;28;20051;-75
2023/09/30 06:53:33;;;;;;;11.32;5.40;;;;;;;12.85;95.66;101727.69;5053456;28;20492;-74
2023/09/30 06:56:36;;;;;;;9.10;5.45;;;;;;;12.99;95.30;101748.97;5054603;28;20528;-75
2023/09/30 06:59:43;;;;;;;14.05;5.65;;;;;;;13.04;94.26;101720.75;5054539;28;20067;-74
2023/09/30 07:02:46;;;;;;;8.18;4.65;;;;;;;13.04;94.24;101712.88;5054456;28;20055;-73
2023/09/30 07:05:49;;;;;;;9.27;5.05;;;;;;;13.09;94.32;101715.31;5054163;28;20220;-73
2023/09/30 07:08:53;;;;;;;8.88;5.45;;;;;;;13.12;94.39;101725.69;5054124;28;20051;-73
2023/09/30 07:11:56;;;;;;;7.60;5.03;;;;;;;13.16;94.14;101734.28;5054175;28;20227;-71
2023/09/30 07:14:59;;;;;;;8.48;5.28;;;;;;;13.28;93.94;101740.81;5054134;28;20084;-73
2023/09/30 07:18:04;;;;;;;6.47;4.38;;;;;;;13.17;93.53;101749.94;5042059;28;20063;-74
2023/09/30 07:21:12;;;;;;;9.57;5.25;;;;;;;13.17;93.78;101744.69;5054170;28;20048;-72
2023/09/30 07:24:19;;;;;;;13.52;6.25;;;;;;;13.10;94.13;101735.38;5053966;28;20135;-71
2023/09/30 07:27:24;;;;;;;12.35;6.15;;;;;;;13.20;94.47;101728.81;5054037;28;20047;-75
2023/09/30 07:30:27;;;;;;;9.15;6.15;;;;;;;13.25;93.77;101732.13;5053753;28;20063;-73
2023/09/30 07:33:31;;;;;;;10.63;5.63;;;;;;;13.43;93.07;101725.22;5053492;28;20040;-76
2023/09/30 07:36:35;;;;;;;10.70;6.47;;;;;;;13.25;93.58;101744.41;5053821;28;20043;-73
2023/09/30 07:39:39;;;;;;;9.73;7.22;;;;;;;13.41;93.78;101747.22;5053210;28;20051;-72
2023/09/30 07:42:42;;;;;;;12.63;7.28;;;;;;;13.47;93.70;101742.53;5053389;28;20095;-74
2023/09/30 07:45:46;;;;;;;13.15;7.97;;;;;;;13.44;93.36;101741.81;5053426;28;20044;-66
2023/09/30 07:48:49;;;;;;;10.98;7.50;;;;;;;13.68;93.17;101745.94;5053028;28;20055;-74
2023/09/30 07:51:53;;;;;;;11.57;6.75;;;;;;;13.76;92.68;101742.97;5039506;28;20114;-74
2023/09/30 07:54:57;;;;;;;12.63;7.57;;;;;;;13.48;93.59;101738.13;5053221;28;20048;-74
2023/09/30 07:58:00;;;;;;;13.15;7.45;;;;;;;13.76;93.74;101742.13;5053121;28;20142;-74
2023/09/30 08:01:04;;;;;;;16.05;8.07;;;;;;;13.85;93.15;101746.97;5052790;28;20067;-74
2023/09/30 08:04:07;;;;;;;13.57;7.30;;;;;;;13.91;94.23;101751.91;5051215;28;20404;-61
2023/09/30 08:07:10;;;;;;;13.95;7.03;;;;;;;14.01;94.21;101754.97;5052148;28;20095;-61
2023/09/30 08:10:16;;;;;;;12.00;7.10;;;;;;;14.08;93.33;101753.78;5052999;28;20055;-61
2023/09/30 08:13:19;;;;;;;11.07;7.30;;;;;;;14.16;93.73;101762.97;5052343;28;20106;-61
2023/09/30 08:16:23;;;;;;;13.35;7.38;;;;;;;14.16;92.77;101762.97;5052335;28;20095;-61
2023/09/30 08:19:26;;;;;;;10.60;6.65;;;;;;;14.33;92.73;101770.09;5052372;28;20158;-61
2023/09/30 08:22:30;;;;;;;8.13;6.57;;;;;;;14.43;91.77;101786.28;5052313;28;20119;-61
2023/09/30 08:25:33;;;;;;;11.40;6.53;;;;;;;14.58;91.53;101780.31;5052458;28;20047;-61
2023/09/30 08:28:36;;;;;;;11.13;6.80;;;;;;;14.62;90.62;101766.06;5052304;28;20102;-61
2023/09/30 08:31:40;;;;;;;13.48;8.07;;;;;;;14.74;90.85;101774.25;5052367;28;20068;-61
2023/09/30 08:34:43;;;;;;;16.10;6.13;;;;;;;14.78;90.53;101775.84;5052094;28;20469;-61
2023/09/30 08:37:46;;;;;;;14.75;7.72;;;;;;;14.79;89.49;101777.53;5052231;28;20194;-61
2023/09/30 08:40:52;;;;;;;16.85;8.07;;;;;;;14.68;90.69;101777.19;5052277;28;20107;-61
2023/09/30 08:43:59;;;;;;;14.02;7.70;;;;;;;14.74;90.05;101775.16;5052002;28;20048;-61
2023/09/30 08:47:03;;;;;;;14.00;6.40;;;;;;;14.95;89.75;101781.09;5051767;28;20107;-61
2023/09/30 08:50:10;;;;;;;12.00;7.95;;;;;;;14.86;89.74;101784.19;5051824;28;20597;-62
2023/09/30 08:53:16;;;;;;;16.63;7.50;;;;;;;14.71;89.27;101790.22;5051828;28;20190;-62
2023/09/30 08:56:29;;;;;;;49.60;40.35;;;;;;;14.63;89.95;101794.09;5051701;28;20047;-61
2023/09/30 08:59:35;;;;;;;13.77;8.73;;;;;;;14.31;92.50;101800.88;5051917;28;20129;-61
2023/09/30 09:02:40;;;;;;;12.52;7.72;;;;;;;14.35;94.30;101799.78;5039305;28;20048;-61
2023/09/30 09:05:43;;;;;;;13.73;7.85;;;;;;;14.32;93.65;101809.59;5051566;28;20156;-61
2023/09/30 09:08:47;;;;;;;14.52;8.20;;;;;;;14.22;94.37;101792.56;5051670;28;20136;-61
2023/09/30 09:11:50;;;;;;;15.68;8.43;;;;;;;14.28;93.79;101789.63;5051504;28;20102;-61
2023/09/30 09:14:54;;;;;;;11.73;8.15;;;;;;;14.27;94.28;101798.47;5051622;28;20099;-61
2023/09/30 09:17:57;;;;;;;13.57;8.20;;;;;;;14.36;93.92;101798.03;5051337;28;20128;-61
2023/09/30 09:21:22;;;;;;;12.38;8.02;;;;;;;14.42;91.99;101789.81;5051406;28;20044;-61
2023/09/30 09:24:35;;;;;;;13.68;7.88;;;;;;;14.64;92.32;101785.28;5051373;28;20083;-61
2023/09/30 09:27:39;;;;;;;13.25;7.75;;;;;;;14.83;89.82;101789.59;5051473;28;20103;-61
2023/09/30 09:30:43;;;;;;;15.00;7.20;;;;;;;14.97;89.40;101786.31;5051345;28;20170;-61
2023/09/30 09:33:47;;;;;;;10.50;6.30;;;;;;;15.09;91.21;101786.53;5051565;28;20138;-61
2023/09/30 09:36:51;;;;;;;11.52;7.00;;;;;;;15.25;90.67;101777.81;5051658;28;20511;-61
2023/09/30 09:39:56;;;;;;;10.15;5.88;;;;;;;15.39;91.64;101767.41;5051204;28;20044;-61
2023/09/30 09:43:04;;;;;;;10.60;6.03;;;;;;;15.53;90.44;101767.53;5051148;28;20102;-61
2023/09/30 09:46:08;;;;;;;13.55;6.80;;;;;;;15.69;90.46;101758.81;5050438;28;20076;-61
2023/09/30 09:49:12;;;;;;;12.50;6.43;;;;;;;15.72;89.10;101758.66;5051227;28;20064;-62
2023/09/30 09:52:17;;;;;;;13.25;5.93;;;;;;;15.76;88.41;101750.53;5051094;28;20095;-61
2023/09/30 09:55:23;;;;;;;16.60;6.20;;;;;;;15.83;87.03;101740.47;5051371;28;20052;-61
2023/09/30 09:58:29;;;;;;;14.00;6.82;;;;;;;15.94;85.47;101743.38;5050502;28;20098;-61
2023/09/30 10:01:36;;;;;;;11.52;4.72;;;;;;;16.00;83.64;101737.75;5049795;28;20512;-62
2023/09/30 10:04:39;;;;;;;12.43;5.47;;;;;;;16.03;81.66;101732.31;5051734;28;20052;-61
2023/09/30 10:07:56;;;;;;;15.68;5.72;;;;;;;16.03;82.04;101734.94;5050805;28;20047;-62
2023/09/30 10:11:00;;;;;;;14.05;4.25;;;;;;;16.01;76.14;101736.81;5049735;28;20114;-62
2023/09/30 10:14:04;;;;;;;11.30;4.38;;;;;;;16.11;79.76;101731.00;5050413;28;20498;-62
2023/09/30 10:17:07;;;;;;;12.50;5.57;;;;;;;16.23;80.75;101725.06;5051265;28;20507;-62
2023/09/30 10:20:10;;;;;;;12.07;4.10;;;;;;;16.24;78.08;101718.81;5051034;28;20044;-62
2023/09/30 10:23:16;;;;;;;12.70;4.07;;;;;;;16.16;73.33;101721.06;5050984;28;20107;-62
2023/09/30 10:26:20;;;;;;;12.10;4.20;;;;;;;16.29;74.36;101724.69;5050982;28;20040;-62
2023/09/30 10:29:39;;;;;;;10.57;4.40;;;;;;;16.41;74.56;101726.63;5038692;28;20075;-62
2023/09/30 10:32:55;;;;;;;10.43;3.88;;;;;;;16.56;74.45;101721.41;5050771;28;20047;-62
2023/09/30 10:36:00;;;;;;;8.60;3.38;;;;;;;16.66;72.28;101720.78;5051443;28;20463;-62
2023/09/30 10:39:04;;;;;;;10.57;3.65;;;;;;;16.75;71.92;101729.97;5052091;28;20110;-61
2023/09/30 10:42:10;;;;;;;11.77;4.53;;;;;;;16.84;71.49;101729.44;5051755;28;20136;-61
2023/09/30 10:45:43;;;;;;;11.15;3.33;;;;;;;16.78;70.20;101719.22;5052015;28;20047;-62
2023/09/30 10:48:48;;;;;;;10.02;4.22;;;;;;;16.96;71.21;101722.56;5051372;28;20132;-62
2023/09/30 10:51:53;;;;;;;11.05;3.83;;;;;;;17.10;70.64;101713.81;5051938;28;20083;-61
2023/09/30 10:55:03;;;;;;;9.52;3.78;;;;;;;17.16;69.91;101714.28;5051811;28;20056;-61
2023/09/30 10:58:07;;;;;;;8.82;3.05;;;;;;;17.15;66.44;101711.75;5051362;28;20048;-62
2023/09/30 11:01:13;;;;;;;11.73;3.40;;;;;;;17.12;66.88;101717.22;5051484;28;20043;-61
2023/09/30 11:04:17;;;;;;;9.88;3.50;;;;;;;17.10;66.63;101730.53;5051620;28;20047;-61
2023/09/30 11:07:26;;;;;;;9.88;4.28;;;;;;;16.99;64.41;101742.69;5051490;28;20087;-61
2023/09/30 11:10:29;;;;;;;10.68;3.63;;;;;;;17.14;66.07;101733.84;5055479;28;20555;-61
2023/09/30 11:13:36;;;;;;;8.93;3.00;;;;;;;17.14;65.20;101731.19;5054457;28;20515;-61
2023/09/30 11:16:45;;;;;;;9.63;3.47;;;;;;;17.25;64.26;101727.88;5054350;28;20583;-61
2023/09/30 11:19:48;;;;;;;7.85;3.63;;;;;;;17.26;63.75;101711.94;5054981;28;20504;-60
2023/09/30 11:22:52;;;;;;;8.85;3.60;;;;;;;17.26;63.31;101711.06;5054849;28;20450;-61
2023/09/30 11:25:55;;;;;;;7.70;3.30;;;;;;;17.42;64.41;101703.88;5054176;28;20040;-61
2023/09/30 11:29:26;;;;;;;10.20;3.92;;;;;;;17.59;64.27;101710.78;5053515;28;20408;-61
2023/09/30 11:32:30;;;;;;;9.20;3.53;;;;;;;17.65;64.02;101718.34;5053714;28;20128;-60
2023/09/30 11:35:34;;;;;;;8.95;3.53;;;;;;;17.79;62.83;101718.31;5054691;28;20441;-61
2023/09/30 11:38:46;;;;;;;7.05;3.47;;;;;;;17.79;61.40;101723.63;5054090;28;20071;-63
2023/09/30 11:41:49;;;;;;;9.30;3.60;;;;;;;17.87;60.79;101726.63;5054106;28;20048;-63
2023/09/30 11:44:53;;;;;;;8.23;3.85;;;;;;;18.03;61.47;101720.38;5054586;28;20102;-64
2023/09/30 11:47:58;;;;;;;8.95;3.85;;;;;;;18.18;61.62;101708.75;5053995;28;20087;-64
2023/09/30 11:51:02;;;;;;;8.38;3.50;;;;;;;18.28;59.65;101688.69;5054097;28;20052;-62
2023/09/30 11:54:08;;;;;;;8.32;3.25;;;;;;;18.44;62.32;101685.00;5053630;28;20063;-64
2023/09/30 11:57:15;;;;;;;8.18;3.55;;;;;;;18.66;61.08;101687.91;5054644;28;20051;-78
2023/09/30 12:00:24;;;;;;;6.38;2.95;;;;;;;18.65;58.56;101685.38;5054391;28;20485;-71
2023/09/30 12:03:29;;;;;;;7.13;3.17;;;;;;;18.69;56.58;101686.84;5021719;28;20138;-71
2023/09/30 12:06:34;;;;;;;7.43;3.30;;;;;;;18.56;54.64;101676.22;5053879;28;20051;-80
2023/09/30 12:09:37;;;;;;;9.63;4.25;;;;;;;18.81;54.78;101670.16;5054084;28;20111;-80
2023/09/30 12:12:40;;;;;;;6.80;3.30;;;;;;;19.16;54.47;101677.47;5053942;28;20060;-80
2023/09/30 12:15:44;;;;;;;7.07;3.60;;;;;;;19.16;54.04;101666.84;5053991;28;20091;-76
2023/09/30 12:18:47;;;;;;;8.25;3.28;;;;;;;19.20;54.11;101665.66;5054227;28;20110;-81
2023/09/30 12:21:51;;;;;;;6.93;3.25;;;;;;;19.60;55.18;101674.28;5053704;28;20127;-82
2023/09/30 12:24:54;;;;;;;7.50;3.25;;;;;;;19.52;53.32;101671.34;5053720;28;20040;-77
2023/09/30 12:27:57;;;;;;;7.75;2.90;;;;;;;19.61;52.25;101678.63;5053986;28;20412;-77
2023/09/30 12:31:04;;;;;;;7.15;3.20;;;;;;;20.21;50.31;101663.66;5052741;28;20209;-82
2023/09/30 12:34:08;;;;;;;6.85;3.35;;;;;;;20.64;50.57;101663.97;5055114;28;20133;-80
2023/09/30 12:37:13;;;;;;;6.65;3.65;;;;;;;20.43;48.71;101670.88;5086581;28;20108;-78
2023/09/30 12:40:16;;;;;;;6.38;3.13;;;;;;;20.43;49.47;101670.88;5080537;28;20047;-80
2023/09/30 12:43:20;;;;;;;6.90;3.25;;;;;;;20.55;49.00;101669.97;5079683;28;20114;-81
2023/09/30 12:46:25;;;;;;;7.05;3.40;;;;;;;19.90;47.28;101675.69;5075695;28;20111;-75
2023/09/30 12:49:28;;;;;;;6.82;3.20;;;;;;;20.94;47.92;101670.50;5082842;28;20087;-84
2023/09/30 12:52:33;;;;;;;7.65;2.85;;;;;;;20.69;48.03;101657.44;5078876;28;20040;-82
2023/09/30 12:55:36;;;;;;;6.65;3.35;;;;;;;20.86;48.21;101647.16;5080021;28;20051;-82
2023/09/30 12:58:40;;;;;;;8.90;3.38;;;;;;;21.30;47.53;101640.16;5089794;28;20127;-83
2023/09/30 13:01:44;;;;;;;6.38;3.05;;;;;;;22.16;45.30;101625.19;5092829;28;20206;-80
2023/09/30 13:05:37;;;;;;;7.07;3.35;;;;;;;22.33;45.04;101631.75;5092464;28;20109;-89
2023/09/30 13:08:41;;;;;;;9.30;3.80;;;;;;;24.41;41.31;101623.13;5092358;28;20152;-76
2023/09/30 13:11:44;;;;;;;5.75;3.10;;;;;;;26.62;37.35;101607.63;5087427;28;20086;-75
2023/09/30 13:14:47;;;;;;;7.80;3.17;;;;;;;26.25;36.99;101604.34;5072084;28;20044;-75
2023/09/30 13:17:51;;;;;;;4.95;2.80;;;;;;;26.72;37.69;101607.53;5072089;28;20131;-74
2023/09/30 13:20:54;;;;;;;6.03;3.63;;;;;;;26.81;36.45;101605.72;5085109;28;20113;-75
2023/09/30 13:23:57;;;;;;;6.10;3.00;;;;;;;28.74;33.77;101592.84;5092615;28;20108;-75
2023/09/30 13:27:00;;;;;;;7.85;3.10;;;;;;;31.13;30.77;101590.75;5091982;28;20047;-60
2023/09/30 13:30:05;;;;;;;8.10;4.80;;;;;;;30.56;32.96;101592.28;5092151;28;20042;-60
2023/09/30 13:33:08;;;;;;;8.57;3.70;;;;;;;31.04;31.63;101584.63;5091597;28;20490;-61
2023/09/30 13:36:11;;;;;;;7.13;3.72;;;;;;;29.76;33.66;101579.38;5091897;28;20054;-60
2023/09/30 13:39:17;;;;;;;7.88;3.15;;;;;;;29.62;33.67;101586.38;5091818;28;20113;-60
2023/09/30 13:42:20;;;;;;;18.00;6.75;;;;;;;28.69;34.31;101581.78;5091715;28;20407;-60
2023/09/30 13:45:24;;;;;;;13.98;4.75;;;;;;;27.90;36.33;101586.06;5091712;28;20524;-60
2023/09/30 13:48:27;;;;;;;7.65;3.55;;;;;;;28.60;32.93;101582.81;5051326;28;20071;-60
2023/09/30 13:51:30;;;;;;;6.70;3.58;;;;;;;28.08;35.39;101581.38;5051475;28;20040;-61
2023/09/30 13:54:33;;;;;;;9.88;4.57;;;;;;;26.79;35.02;101576.34;5051140;28;20044;-60
2023/09/30 13:57:36;;;;;;;10.63;5.05;;;;;;;25.83;40.46;101570.16;5051325;28;20087;-60
2023/09/30 14:00:47;;;;;;;6.57;3.00;;;;;;;25.53;40.99;101566.88;5051197;28;20047;-60
2023/09/30 14:03:55;;;;;;;7.53;4.13;;;;;;;25.00;42.40;101564.91;5051051;28;20120;-60
2023/09/30 14:07:00;;;;;;;6.15;3.63;;;;;;;25.24;38.84;101569.75;5051331;28;20466;-61
2023/09/30 14:10:04;;;;;;;10.75;5.18;;;;;;;24.53;37.60;101564.97;5051496;28;20079;-60
2023/09/30 14:13:07;;;;;;;8.25;4.32;;;;;;;24.99;38.26;101568.59;5051076;28;20035;-60
2023/09/30 14:16:11;;;;;;;8.27;4.32;;;;;;;25.34;37.67;101577.72;5051038;28;20191;-60
2023/09/30 14:19:14;;;;;;;7.65;4.65;;;;;;;25.87;36.69;101568.84;5051030;28;20052;-61
2023/09/30 14:22:18;;;;;;;8.82;4.78;;;;;;;27.50;33.42;101560.81;5050917;28;20114;-60
2023/09/30 14:25:21;;;;;;;9.63;4.72;;;;;;;25.97;35.17;101561.56;5051077;28;20524;-77
2023/09/30 14:28:25;;;;;;;6.95;3.45;;;;;;;27.36;35.89;101567.69;5050900;28;20642;-73
2023/09/30 14:31:29;;;;;;;8.45;4.38;;;;;;;27.68;34.92;101566.06;5035515;28;20106;-74
2023/09/30 14:34:33;;;;;;;6.97;3.70;;;;;;;27.15;37.74;101560.06;5035137;28;20071;-74
2023/09/30 14:37:36;;;;;;;6.00;3.67;;;;;;;26.72;37.57;101564.59;5036839;28;20052;-74
2023/09/30 14:40:40;;;;;;;6.63;3.75;;;;;;;26.40;37.71;101554.50;5038489;28;20041;-75
2023/09/30 14:43:45;;;;;;;7.03;4.03;;;;;;;26.43;38.71;101549.66;5040587;28;20099;-74
2023/09/30 14:46:51;;;;;;;4.65;3.08;;;;;;;24.51;39.47;101553.59;5059972;28;20047;-74
2023/09/30 14:49:55;;;;;;;7.43;3.70;;;;;;;23.20;46.40;101562.06;5087137;28;20058;-74
2023/09/30 14:52:59;;;;;;;8.35;4.20;;;;;;;22.31;49.70;101559.13;5084605;28;20115;-74
2023/09/30 14:56:02;;;;;;;7.90;4.05;;;;;;;21.67;51.70;101560.03;5094635;28;20123;-73
2023/09/30 14:59:05;;;;;;;9.18;4.45;;;;;;;21.46;51.37;101551.16;5094830;28;20130;-73
2023/09/30 15:02:09;;;;;;;7.32;4.10;;;;;;;21.16;53.70;101543.84;5081987;28;20051;-73
2023/09/30 15:05:12;;;;;;;8.20;4.10;;;;;;;20.97;55.18;101545.31;5094487;28;20046;-73
2023/09/30 15:08:16;;;;;;;8.10;4.25;;;;;;;20.36;57.55;101550.13;5094598;28;20043;-79
2023/09/30 15:11:19;;;;;;;7.93;4.40;;;;;;;20.33;57.31;101555.66;5094630;28;20448;-78
2023/09/30 15:14:23;;;;;;;8.60;4.72;;;;;;;20.14;58.30;101545.59;5094706;28;20046;-78
2023/09/30 15:17:26;;;;;;;9.65;5.78;;;;;;;19.72;59.48;101551.38;5094430;28;20047;-80
2023/09/30 15:20:29;;;;;;;8.35;4.47;;;;;;;19.85;61.75;101547.81;5094738;28;20109;-78
2023/09/30 15:23:33;;;;;;;10.18;4.50;;;;;;;19.84;61.92;101546.09;5094344;28;20491;-77
2023/09/30 15:26:36;;;;;;;7.63;4.18;;;;;;;19.81;63.15;101548.97;5094253;28;20067;-76
2023/09/30 15:29:39;;;;;;;6.32;3.67;;;;;;;19.78;63.15;101546.56;5094324;28;20097;-78
2023/09/30 15:32:43;;;;;;;7.45;3.70;;;;;;;19.62;63.86;101547.69;5081648;28;20170;-79
2023/09/30 15:35:46;;;;;;;7.78;3.90;;;;;;;19.42;63.77;101561.56;5094136;28;20097;-80
2023/09/30 15:38:50;;;;;;;8.15;3.67;;;;;;;19.28;64.37;101558.13;5094146;28;20117;-79
2023/09/30 15:41:54;;;;;;;6.65;3.83;;;;;;;19.20;64.15;101555.16;5088185;28;20495;-77
2023/09/30 15:44:58;;;;;;;8.88;4.13;;;;;;;18.63;67.17;101555.66;5079722;28;20098;-72
2023/09/30 15:48:01;;;;;;;5.90;3.63;;;;;;;18.55;68.38;101560.66;5053349;28;20052;-78
2023/09/30 15:51:05;;;;;;;9.32;4.07;;;;;;;18.58;68.30;101555.16;5053552;28;20098;-77
2023/09/30 15:54:08;;;;;;;7.63;3.72;;;;;;;18.49;68.06;101545.19;5053496;28;20047;-78
2023/09/30 15:57:12;;;;;;;6.72;3.88;;;;;;;18.39;68.23;101549.44;5053613;28;20048;-78
2023/09/30 16:00:16;;;;;;;8.57;3.78;;;;;;;18.27;68.67;101543.16;5053850;28;20048;-78
2023/09/30 16:03:19;;;;;;;7.78;4.18;;;;;;;18.14;70.21;101543.16;5041290;28;20039;-78
2023/09/30 16:06:23;;;;;;;7.30;3.60;;;;;;;18.06;70.56;101545.47;5053998;28;20048;-79
2023/09/30 16:09:26;;;;;;;6.05;3.60;;;;;;;17.95;70.81;101553.28;5053792;28;20128;-78
2023/09/30 16:12:29;;;;;;;7.60;4.50;;;;;;;17.93;72.31;101545.44;5053574;28;20453;-77
2023/09/30 16:15:33;;;;;;;10.30;4.05;;;;;;;17.85;72.83;101545.13;5053643;28;20047;-77
2023/09/30 16:18:49;;;;;;;6.63;3.80;;;;;;;17.81;72.74;101547.13;5054062;28;20051;-79
2023/09/30 16:22:02;;;;;;;7.05;3.70;;;;;;;17.64;74.06;101544.69;5053527;28;20511;-79
2023/09/30 16:25:06;;;;;;;9.60;4.10;;;;;;;17.54;73.91;101539.16;5053510;28;20083;-78
2023/09/30 16:28:08;;;;;;;8.05;4.65;;;;;;;17.50;75.25;101547.41;5053282;28;20110;-78
2023/09/30 16:31:15;;;;;;;9.35;4.28;;;;;;;17.31;75.84;101553.03;5053103;28;20183;-81
2023/09/30 16:34:19;;;;;;;8.55;4.10;;;;;;;17.30;76.34;101554.00;5053512;28;20094;-78
2023/09/30 16:37:23;;;;;;;6.85;4.03;;;;;;;17.23;76.58;101556.19;5053233;28;20412;-77
2023/09/30 16:40:26;;;;;;;8.00;4.30;;;;;;;17.12;76.98;101563.94;5052360;28;20087;-80
2023/09/30 16:43:29;;;;;;;8.40;4.07;;;;;;;16.94;77.89;101569.44;5067239;28;20399;-79
2023/09/30 16:46:33;;;;;;;6.28;3.65;;;;;;;16.82;78.96;101572.84;5081839;28;20047;-79
2023/09/30 16:49:38;;;;;;;12.40;5.00;;;;;;;16.72;79.42;101561.97;5081985;28;20119;-79
2023/09/30 16:52:42;;;;;;;7.10;4.00;;;;;;;16.63;79.62;101551.13;5084261;28;20043;-79
2023/09/30 16:55:46;;;;;;;9.50;3.50;;;;;;;16.60;80.02;101559.22;5081582;28;20514;-79
2023/09/30 16:58:50;;;;;;;7.28;3.67;;;;;;;16.46;80.87;101560.91;5081187;28;20116;-77
2023/09/30 17:01:54;;;;;;;10.18;4.07;;;;;;;16.30;81.18;101560.13;5069589;28;20051;-79
2023/09/30 17:05:02;;;;;;;7.10;3.88;;;;;;;16.21;81.74;101569.47;5080482;28;20044;-79
2023/09/30 17:08:05;;;;;;;8.18;4.35;;;;;;;16.18;81.79;101569.63;5079516;28;20083;-78
2023/09/30 17:11:10;;;;;;;7.00;3.97;;;;;;;16.11;81.99;101570.91;5092565;28;20427;-79
2023/09/30 17:14:14;;;;;;;8.85;4.20;;;;;;;15.92;83.01;101579.09;5080039;28;20113;-78
2023/09/30 17:17:17;;;;;;;7.90;4.18;;;;;;;15.87;83.15;101589.03;5092538;28;20101;-78
2023/09/30 17:20:20;;;;;;;8.32;4.60;;;;;;;15.81;83.27;101586.75;5092582;28;20043;-79
2023/09/30 17:23:24;;;;;;;8.02;3.90;;;;;;;15.72;83.63;101589.91;5092708;28;20107;-79
2023/09/30 17:26:29;;;;;;;8.10;4.25;;;;;;;15.63;83.98;101580.69;5093321;28;20578;-77
2023/09/30 17:29:33;;;;;;;11.57;4.15;;;;;;;15.61;84.39;101589.66;5093334;28;20069;-80
2023/09/30 17:32:37;;;;;;;10.77;4.47;;;;;;;15.48;85.32;101595.59;5093245;28;20085;-80
2023/09/30 17:35:41;;;;;;;7.60;3.70;;;;;;;15.42;85.38;101593.31;5093295;28;20404;-81
2023/09/30 17:38:48;;;;;;;8.77;4.55;;;;;;;15.44;85.15;101594.06;5093306;28;20047;-81
2023/09/30 17:41:52;;;;;;;11.25;4.65;;;;;;;15.36;85.46;101593.66;5082586;28;20060;-81
2023/09/30 17:44:58;;;;;;;9.30;4.22;;;;;;;15.26;85.70;101597.72;5083084;28;20403;-81
2023/09/30 17:48:05;;;;;;;6.18;4.13;;;;;;;15.10;85.90;101606.47;5080178;28;20059;-80
2023/09/30 17:51:19;;;;;;;8.23;4.05;;;;;;;15.08;86.25;101603.03;5082057;28;20102;-81
2023/09/30 17:54:29;;;;;;;10.32;4.38;;;;;;;15.10;86.36;101602.97;5075919;28;20044;-83
2023/09/30 17:57:34;;;;;;;9.15;4.43;;;;;;;14.91;87.14;101605.75;5072782;28;20144;-78
2023/09/30 18:00:38;;;;;;;7.50;4.18;;;;;;;14.91;86.82;101603.13;5072754;28;20039;-76
2023/09/30 18:03:45;;;;;;;6.95;4.22;;;;;;;14.86;86.90;101610.41;5075197;28;20453;-76
2023/09/30 18:06:51;;;;;;;8.38;5.50;;;;;;;14.83;87.19;101602.66;5084846;28;20465;-75
2023/09/30 18:09:59;;;;;;;9.90;4.30;;;;;;;14.75;87.65;101602.22;5092851;28;20077;-74
2023/09/30 18:13:10;;;;;;;6.38;4.13;;;;;;;14.63;88.17;101599.28;5092917;28;20087;-76
2023/09/30 18:16:14;;;;;;;11.50;4.47;;;;;;;14.56;87.97;101603.19;5092836;28;20404;-77
2023/09/30 18:19:20;;;;;;;9.85;4.82;;;;;;;14.49;87.78;101595.66;5095642;28;20097;-76
2023/09/30 18:22:24;;;;;;;9.10;4.90;;;;;;;14.45;87.98;101605.47;5096903;28;20043;-76
2023/09/30 18:25:28;;;;;;;9.95;4.55;;;;;;;14.30;88.42;101612.38;5097097;28;20070;-77
2023/09/30 18:28:44;;;;;;;9.73;5.40;;;;;;;14.31;88.82;101615.84;5096827;28;20089;-76
2023/09/30 18:31:51;;;;;;;9.15;5.20;;;;;;;14.22;89.05;101609.28;5097010;28;20051;-75
2023/09/30 18:34:57;;;;;;;9.82;4.60;;;;;;;14.21;88.69;101610.22;5096805;28;20046;-75
2023/09/30 18:38:01;;;;;;;10.57;4.95;;;;;;;14.19;88.61;101609.41;5096458;28;20089;-75
2023/09/30 18:41:16;;;;;;;9.30;4.80;;;;;;;14.06;88.95;101608.34;5096413;28;20043;-75
2023/09/30 18:44:20;;;;;;;7.93;5.10;;;;;;;14.04;88.89;101605.78;5096403;28;20073;-75
2023/09/30 18:47:23;;;;;;;9.18;4.60;;;;;;;13.99;88.49;101617.47;5096060;28;20055;-76
2023/09/30 18:50:27;;;;;;;9.02;4.93;;;;;;;13.98;88.68;101616.63;5096394;28;20185;-76
2023/09/30 18:53:30;;;;;;;9.07;4.93;;;;;;;13.81;88.93;101614.78;5096175;28;20417;-75
2023/09/30 18:56:33;;;;;;;10.20;4.68;;;;;;;13.85;88.90;101619.00;5096344;28;20043;-75
2023/09/30 18:59:40;;;;;;;8.77;4.10;;;;;;;13.78;88.66;101624.59;5095998;28;20070;-76